Time;durP1;ratioP1;P1;durP2;ratioP2;P2;SDS_P1;SDS_P2;PMS_P1;PMS_P2;Temp;Humidity;BMP_temperature;BMP_pressure;BME280_temperature;BME280_humidity;BME280_pressure;Samples;Min_cycle;Max_cycle;Signal;HPM_P1;HPM_P2
2022/06/16 00:00:15;;;;;;;53.13;19.98;;;;;;;;;;5052102;28;20094;-58
2022/06/16 00:02:42;;;;;;;44.28;19.45;;;;;;;;;;5049911;28;20515;-57
2022/06/16 00:05:12;;;;;;;41.78;18.63;;;;;;;;;;5043549;28;20041;-58
2022/06/16 00:07:39;;;;;;;40.70;19.13;;;;;;;;;;5044370;28;20064;-57
2022/06/16 00:10:06;;;;;;;38.42;20.00;;;;;;;;;;5044469;28;20041;-58
2022/06/16 00:12:37;;;;;;;43.30;18.90;;;;;;;;;;5032517;28;20081;-58
2022/06/16 00:15:05;;;;;;;64.70;19.30;;;;;;;;;;5044404;28;20045;-58
2022/06/16 00:17:31;;;;;;;38.33;18.02;;;;;;;;;;5044267;28;20049;-58
2022/06/16 00:20:00;;;;;;;44.90;19.02;;;;;;;;;;5043478;28;20123;-58
2022/06/16 00:22:27;;;;;;;53.40;19.45;;;;;;;;;;5043794;28;20044;-59
2022/06/16 00:24:54;;;;;;;35.47;18.17;;;;;;;;;;5044247;28;20402;-58
2022/06/16 00:27:21;;;;;;;82.75;22.75;;;;;;;;;;5048536;28;20041;-58
2022/06/16 00:29:47;;;;;;;57.60;19.48;;;;;;;;;;5046798;28;20048;-58
2022/06/16 00:32:14;;;;;;;40.67;18.13;;;;;;;;;;5041219;28;20037;-58
2022/06/16 00:34:41;;;;;;;44.63;19.23;;;;;;;;;;5042096;28;20060;-58
2022/06/16 00:37:08;;;;;;;53.47;21.20;;;;;;;;;;5043680;28;20048;-59
2022/06/16 00:39:34;;;;;;;54.10;19.33;;;;;;;;;;5043092;28;20403;-58
2022/06/16 00:42:13;;;;;;;46.95;18.45;;;;;;;;;;5052300;28;20535;-60
2022/06/16 00:44:42;;;;;;;38.33;17.23;;;;;;;;;;5046558;28;20126;-60
2022/06/16 00:47:08;;;;;;;41.40;18.80;;;;;;;;;;5042435;28;20045;-60
2022/06/16 00:49:38;;;;;;;40.35;17.55;;;;;;;;;;5041580;28;20135;-58
2022/06/16 00:52:31;;;;;;;38.42;16.92;;;;;;;;;;5043865;28;20111;-58
2022/06/16 00:55:11;;;;;;;44.50;17.02;;;;;;;;;;5027457;28;20080;-59
2022/06/16 00:57:40;;;;;;;44.83;17.10;;;;;;;;;;5032265;28;20034;-58
2022/06/16 01:00:13;;;;;;;37.47;16.25;;;;;;;;;;5050726;28;20053;-58
2022/06/16 01:02:39;;;;;;;63.17;20.40;;;;;;;;;;5048580;28;20128;-59
2022/06/16 01:05:06;;;;;;;47.33;18.38;;;;;;;;;;5043149;28;20060;-59
2022/06/16 01:07:35;;;;;;;46.28;18.42;;;;;;;;;;5041511;28;20037;-58
2022/06/16 01:10:03;;;;;;;39.72;17.92;;;;;;;;;;5043412;28;20040;-59
2022/06/16 01:15:41;;;;;;;54.50;20.33;;;;;;;;;;5043675;28;20034;-59
2022/06/16 01:18:08;;;;;;;59.13;19.60;;;;;;;;;;5042549;28;20045;-59
2022/06/16 01:20:55;;;;;;;35.40;18.10;;;;;;;;;;5046370;28;20076;-58
2022/06/16 01:23:52;;;;;;;65.25;20.15;;;;;;;;;;5042846;28;20094;-59
2022/06/16 01:26:22;;;;;;;58.28;19.75;;;;;;;;;;5037597;28;20049;-58
2022/06/16 01:29:05;;;;;;;45.28;17.58;;;;;;;;;;5035807;28;20059;-58
2022/06/16 01:31:35;;;;;;;51.67;17.23;;;;;;;;;;5041018;28;20136;-58
2022/06/16 01:34:11;;;;;;;44.85;16.23;;;;;;;;;;5041143;28;20044;-58
2022/06/16 01:36:54;;;;;;;54.53;16.40;;;;;;;;;;5041302;28;20100;-57
2022/06/16 01:39:27;;;;;;;46.10;15.65;;;;;;;;;;5046598;28;20060;-57
2022/06/16 01:41:58;;;;;;;45.80;15.95;;;;;;;;;;5047803;28;20044;-58
2022/06/16 01:44:30;;;;;;;50.67;18.05;;;;;;;;;;5041072;28;20053;-57
2022/06/16 01:46:59;;;;;;;57.53;17.10;;;;;;;;;;5041255;28;20048;-57
2022/06/16 01:49:32;;;;;;;44.15;17.20;;;;;;;;;;5041378;28;20121;-58
2022/06/16 01:52:01;;;;;;;43.13;19.13;;;;;;;;;;5042434;28;20146;-58
2022/06/16 01:54:35;;;;;;;42.78;19.02;;;;;;;;;;5030809;28;20042;-58
2022/06/16 01:57:15;;;;;;;56.85;21.35;;;;;;;;;;5072321;28;20041;-58
2022/06/16 01:59:41;;;;;;;48.90;19.85;;;;;;;;;;5049925;28;20049;-58
2022/06/16 02:02:11;;;;;;;47.55;19.83;;;;;;;;;;5041317;28;20041;-58
2022/06/16 02:04:46;;;;;;;45.72;19.63;;;;;;;;;;5040759;28;20501;-57
2022/06/16 02:07:19;;;;;;;58.30;20.42;;;;;;;;;;5041017;28;20040;-58
2022/06/16 02:09:47;;;;;;;65.55;21.63;;;;;;;;;;5035918;28;20070;-58
2022/06/16 02:13:04;;;;;;;59.15;19.77;;;;;;;;;;5047950;28;20040;-58
2022/06/16 02:15:08;;;;;;;50.85;20.23;;;;;;;;;;5049474;28;20049;-58
2022/06/16 02:17:49;;;;;;;56.88;18.88;;;;;;;;;;5045770;28;20045;-58
2022/06/16 02:20:16;;;;;;;46.63;19.55;;;;;;;;;;5041950;28;20045;-57
2022/06/16 02:22:42;;;;;;;36.70;18.95;;;;;;;;;;5040250;28;20053;-57
2022/06/16 02:25:09;;;;;;;67.60;21.75;;;;;;;;;;5042029;28;20536;-58
2022/06/16 02:27:35;;;;;;;80.97;22.10;;;;;;;;;;5043298;28;20049;-59
2022/06/16 02:30:02;;;;;;;48.08;21.65;;;;;;;;;;5083073;28;20044;-57
2022/06/16 02:32:48;;;;;;;53.65;21.33;;;;;;;;;;5040799;28;20466;-58
2022/06/16 02:35:17;;;;;;;35.83;20.90;;;;;;;;;;5040884;28;20136;-59
2022/06/16 02:38:01;;;;;;;58.15;22.02;;;;;;;;;;5042003;28;20041;-59
2022/06/16 02:40:27;;;;;;;;;;;;;;;;;;5042520;28;20409;-59
2022/06/16 02:42:54;;;;;;;85.22;22.13;;;;;;;;;;5041701;28;19928;-58
2022/06/16 02:45:30;;;;;;;55.70;21.63;;;;;;;;;;5047558;28;20092;-59
2022/06/16 02:47:59;;;;;;;47.13;21.08;;;;;;;;;;5048385;28;20041;-59
2022/06/16 02:50:26;;;;;;;59.10;21.60;;;;;;;;;;5040429;28;20061;-59
2022/06/16 02:53:01;;;;;;;56.63;21.67;;;;;;;;;;5038026;28;20041;-59
2022/06/16 02:55:31;;;;;;;36.80;18.00;;;;;;;;;;5031733;28;20131;-57
2022/06/16 02:57:59;;;;;;;49.83;17.42;;;;;;;;;;5029954;28;20054;-58
2022/06/16 03:00:41;;;;;;;33.05;15.15;;;;;;;;;;5026180;28;20041;-58
2022/06/16 03:03:15;;;;;;;57.40;17.75;;;;;;;;;;5041452;28;20099;-58
2022/06/16 03:05:42;;;;;;;35.92;17.50;;;;;;;;;;5045763;28;20053;-58
2022/06/16 03:08:10;;;;;;;48.47;16.05;;;;;;;;;;5040529;28;20132;-58
2022/06/16 03:10:52;;;;;;;29.50;15.65;;;;;;;;;;5036894;28;20049;-58
2022/06/16 03:13:21;;;;;;;37.08;16.17;;;;;;;;;;5043791;28;20041;-58
2022/06/16 03:15:49;;;;;;;115.97;45.65;;;;;;;;;;5043810;28;20038;-58
2022/06/16 03:18:16;;;;;;;77.85;31.27;;;;;;;;;;5050324;28;20136;-58
2022/06/16 03:20:43;;;;;;;60.70;24.25;;;;;;;;;;5047519;28;20053;-57
2022/06/16 03:23:10;;;;;;;43.40;19.70;;;;;;;;;;5044975;28;20060;-58
2022/06/16 03:25:38;;;;;;;52.17;20.13;;;;;;;;;;5043651;28;20041;-58
2022/06/16 03:28:05;;;;;;;34.50;16.45;;;;;;;;;;5043725;28;20520;-57
2022/06/16 03:30:34;;;;;;;39.17;16.88;;;;;;;;;;5045503;28;20466;-57
2022/06/16 03:33:04;;;;;;;49.75;16.17;;;;;;;;;;5085298;28;20135;-57
2022/06/16 03:35:30;;;;;;;41.33;12.82;;;;;;;;;;5044192;28;20051;-57
2022/06/16 03:38:10;;;;;;;41.85;12.45;;;;;;;;;;5043401;28;20072;-57
2022/06/16 03:40:40;;;;;;;45.30;12.43;;;;;;;;;;5043688;28;20139;-58
2022/06/16 03:43:08;;;;;;;28.95;11.00;;;;;;;;;;5044710;28;20099;-58
2022/06/16 03:45:35;;;;;;;30.67;11.05;;;;;;;;;;5044907;28;20057;-58
2022/06/16 03:48:03;;;;;;;47.58;12.90;;;;;;;;;;5081361;28;20426;-59
2022/06/16 03:50:31;;;;;;;35.83;11.18;;;;;;;;;;5042552;28;20053;-58
2022/06/16 03:52:57;;;;;;;27.88;11.15;;;;;;;;;;5040162;28;20033;-58
2022/06/16 03:55:24;;;;;;;59.17;12.07;;;;;;;;;;5034511;28;20041;-58
2022/06/16 03:57:51;;;;;;;47.80;10.48;;;;;;;;;;5032847;28;20041;-59
2022/06/16 04:00:20;;;;;;;42.80;10.80;;;;;;;;;;5049035;28;20045;-59
2022/06/16 04:02:47;;;;;;;197.77;20.60;;;;;;;;;;5048097;28;20044;-57
2022/06/16 04:05:26;;;;;;;38.15;10.55;;;;;;;;;;5036245;28;20087;-58
2022/06/16 04:08:00;;;;;;;38.25;9.10;;;;;;;;;;5038337;28;20045;-57
2022/06/16 04:10:30;;;;;;;57.63;11.07;;;;;;;;;;5042503;28;20559;-59
2022/06/16 04:12:59;;;;;;;28.80;8.55;;;;;;;;;;5043231;28;20053;-58
2022/06/16 04:15:28;;;;;;;40.97;9.10;;;;;;;;;;5041586;28;20103;-58
2022/06/16 04:17:59;;;;;;;82.22;11.82;;;;;;;;;;5083030;28;20091;-57
2022/06/16 04:20:32;;;;;;;22.02;7.55;;;;;;;;;;5042707;28;20099;-59
2022/06/16 04:23:01;;;;;;;38.85;8.70;;;;;;;;;;5042419;28;20501;-58
2022/06/16 04:25:31;;;;;;;27.48;8.23;;;;;;;;;;5042591;28;20068;-59
2022/06/16 04:28:08;;;;;;;61.70;10.23;;;;;;;;;;5042590;28;20040;-58
2022/06/16 04:30:41;;;;;;;61.75;8.90;;;;;;;;;;5043009;28;20372;-59
2022/06/16 04:33:07;;;;;;;39.95;8.13;;;;;;;;;;5051407;28;20044;-59
2022/06/16 04:35:34;;;;;;;23.05;7.18;;;;;;;;;;5042074;28;20413;-58
2022/06/16 04:38:04;;;;;;;39.67;9.48;;;;;;;;;;5042358;28;20565;-59
2022/06/16 04:40:33;;;;;;;27.30;8.00;;;;;;;;;;5042238;28;20049;-59
2022/06/16 04:43:04;;;;;;;50.55;9.25;;;;;;;;;;5042243;28;20408;-58
2022/06/16 04:45:31;;;;;;;29.95;7.85;;;;;;;;;;5045247;28;20088;-58
2022/06/16 04:47:58;;;;;;;29.65;7.15;;;;;;;;;;5048790;28;20103;-58
2022/06/16 04:50:30;;;;;;;32.92;7.50;;;;;;;;;;5042104;28;20056;-61
2022/06/16 04:52:57;;;;;;;49.92;8.00;;;;;;;;;;5038866;28;20060;-61
2022/06/16 04:55:27;;;;;;;36.22;7.90;;;;;;;;;;5032698;28;20041;-61
2022/06/16 04:58:00;;;;;;;40.45;8.07;;;;;;;;;;5031777;28;20069;-59
2022/06/16 05:00:54;;;;;;;38.17;7.97;;;;;;;;;;5042335;28;20052;-60
2022/06/16 05:03:49;;;;;;;39.67;8.07;;;;;;;;;;5041633;28;20042;-60
2022/06/16 05:06:23;;;;;;;45.25;8.00;;;;;;;;;;5034335;28;20053;-61
2022/06/16 05:09:28;;;;;;;31.38;6.57;;;;;;;;;;5007896;28;20085;-61
2022/06/16 05:12:30;;;;;;;53.28;7.97;;;;;;;;;;4959352;28;20043;-59
2022/06/16 05:15:11;;;;;;;24.45;6.50;;;;;;;;;;4970897;28;20058;-60
2022/06/16 05:17:50;;;;;;;28.38;6.03;;;;;;;;;;4970972;28;20414;-59
2022/06/16 05:20:33;;;;;;;14.70;5.18;;;;;;;;;;4970274;28;20069;-58
2022/06/16 05:23:16;;;;;;;;;;;;;;;;;;4954238;28;20049;-59
2022/06/16 05:26:02;;;;;;;28.95;5.80;;;;;;;;;;4970200;28;20008;-59
2022/06/16 05:28:46;;;;;;;14.73;4.78;;;;;;;;;;4954089;28;20455;-58
2022/06/16 05:31:28;;;;;;;20.95;4.78;;;;;;;;;;4969658;28;20478;-59
2022/06/16 05:33:57;;;;;;;30.00;5.68;;;;;;;;;;4953871;28;20628;-57
2022/06/16 05:36:32;;;;;;;32.70;5.45;;;;;;;;;;4953568;28;20167;-59
2022/06/16 05:39:28;;;;;;;33.60;5.45;;;;;;;;;;4951133;28;20052;-59
2022/06/16 05:42:10;;;;;;;32.33;5.27;;;;;;;;;;4983001;28;20056;-60
2022/06/16 05:44:51;;;;;;;30.42;5.05;;;;;;;;;;5001700;28;20054;-60
2022/06/16 05:47:44;;;;;;;26.60;5.30;;;;;;;;;;5041912;28;20051;-59
2022/06/16 05:50:13;;;;;;;58.63;7.15;;;;;;;;;;5040283;28;20056;-59
2022/06/16 05:52:40;;;;;;;212.27;15.55;;;;;;;;;;5040172;28;20044;-59
2022/06/16 05:55:18;;;;;;;17.92;4.05;;;;;;;;;;5030797;28;20110;-59
2022/06/16 05:57:45;;;;;;;30.70;4.72;;;;;;;;;;5033369;28;20056;-58
2022/06/16 06:00:14;;;;;;;19.88;4.07;;;;;;;;;;5049409;28;20080;-58
2022/06/16 06:02:55;;;;;;;48.65;6.22;;;;;;;;;;5043424;28;20571;-59
2022/06/16 06:05:25;;;;;;;18.08;4.22;;;;;;;;;;5039534;28;20068;-61
2022/06/16 06:16:26;;;;;;;9.88;2.67;;;;;;;;;;5041034;28;20049;-59
2022/06/16 06:18:54;;;;;;;37.55;4.88;;;;;;;;;;5043825;28;20120;-60
2022/06/16 06:24:08;;;;;;;25.38;4.18;;;;;;;;;;5074796;28;20045;-57
2022/06/16 06:26:34;;;;;;;16.95;3.20;;;;;;;;;;5041020;28;20033;-59
2022/06/16 06:29:02;;;;;;;17.10;3.45;;;;;;;;;;5040539;28;20056;-60
2022/06/16 06:31:28;;;;;;;20.63;3.90;;;;;;;;;;5040929;28;20044;-60
2022/06/16 06:33:55;;;;;;;20.85;3.65;;;;;;;;;;5040455;28;20048;-61
2022/06/16 06:36:22;;;;;;;52.53;5.30;;;;;;;;;;5047458;28;20489;-60
2022/06/16 06:38:48;;;;;;;16.27;2.85;;;;;;;;;;5077941;28;20049;-60
2022/06/16 06:41:17;;;;;;;15.65;2.95;;;;;;;;;;5042121;28;20069;-60
2022/06/16 06:43:43;;;;;;;34.92;4.28;;;;;;;;;;5040559;28;20091;-60
2022/06/16 06:46:11;;;;;;;44.05;5.43;;;;;;;;;;5045867;28;20033;-60
2022/06/16 06:48:37;;;;;;;15.90;3.30;;;;;;;;;;5047224;28;20510;-60
2022/06/16 06:51:04;;;;;;;21.10;3.45;;;;;;;;;;5053373;28;20115;-60
2022/06/16 06:53:31;;;;;;;27.25;7.82;;;;;;;;;;5037870;28;20076;-60
2022/06/16 06:55:57;;;;;;;29.80;3.88;;;;;;;;;;5038240;28;20077;-60
2022/06/16 06:58:24;;;;;;;16.52;3.45;;;;;;;;;;5035517;28;20091;-60
2022/06/16 07:00:53;;;;;;;32.67;4.55;;;;;;;;;;5044435;28;20033;-60
2022/06/16 07:03:20;;;;;;;24.55;3.97;;;;;;;;;;5045071;28;20068;-60
2022/06/16 07:05:47;;;;;;;57.83;13.80;;;;;;;;;;5047242;28;20044;-59
2022/06/16 07:08:14;;;;;;;17.17;2.95;;;;;;;;;;5043939;28;20409;-60
2022/06/16 07:10:41;;;;;;;32.25;3.60;;;;;;;;;;5045268;28;20471;-61
2022/06/16 07:13:12;;;;;;;39.72;4.55;;;;;;;;;;5044653;28;20064;-61
2022/06/16 07:15:39;;;;;;;30.02;3.72;;;;;;;;;;5046097;28;20038;-60
2022/06/16 07:18:06;;;;;;;38.50;5.25;;;;;;;;;;5052945;28;20051;-61
2022/06/16 07:20:33;;;;;;;22.92;3.50;;;;;;;;;;5045174;28;20072;-61
2022/06/16 07:23:00;;;;;;;38.67;4.78;;;;;;;;;;5044982;28;20069;-61
2022/06/16 07:25:27;;;;;;;34.00;4.35;;;;;;;;;;5045316;28;20037;-61
2022/06/16 07:27:53;;;;;;;28.83;3.70;;;;;;;;;;5044914;28;20520;-61
2022/06/16 07:30:21;;;;;;;37.38;3.33;;;;;;;;;;5051233;28;20060;-63
2022/06/16 07:32:48;;;;;;;52.75;5.55;;;;;;;;;;5047908;28;20041;-60
2022/06/16 07:35:17;;;;;;;30.15;3.70;;;;;;;;;;5044769;28;20378;-61
2022/06/16 07:37:44;;;;;;;18.05;2.75;;;;;;;;;;5044478;28;20040;-59
2022/06/16 07:40:12;;;;;;;24.10;3.53;;;;;;;;;;5044696;28;20044;-59
2022/06/16 07:42:38;;;;;;;24.27;3.53;;;;;;;;;;5046111;28;20037;-59
2022/06/16 07:45:05;;;;;;;59.05;5.70;;;;;;;;;;5052209;28;20122;-59
2022/06/16 07:47:32;;;;;;;25.20;3.38;;;;;;;;;;5043949;28;20485;-59
2022/06/16 07:50:01;;;;;;;27.67;3.78;;;;;;;;;;5044355;28;20115;-60
2022/06/16 07:52:31;;;;;;;19.48;3.70;;;;;;;;;;5044082;28;20033;-59
2022/06/16 07:54:58;;;;;;;24.73;3.33;;;;;;;;;;5030357;28;20434;-59
2022/06/16 07:57:27;;;;;;;157.80;12.07;;;;;;;;;;5037231;28;20048;-59
2022/06/16 07:59:56;;;;;;;54.78;4.85;;;;;;;;;;5038749;28;20096;-59
2022/06/16 08:02:23;;;;;;;50.17;4.68;;;;;;;;;;5041810;28;20485;-60
2022/06/16 08:04:50;;;;;;;25.77;3.25;;;;;;;;;;5043501;28;20047;-59
2022/06/16 08:07:17;;;;;;;22.27;3.55;;;;;;;;;;5044232;28;20040;-59
2022/06/16 08:09:43;;;;;;;43.85;4.50;;;;;;;;;;5044223;28;20048;-60
2022/06/16 08:12:11;;;;;;;31.00;3.85;;;;;;;;;;5044594;28;20091;-60
2022/06/16 08:14:40;;;;;;;96.82;8.77;;;;;;;;;;5042869;28;20049;-60
2022/06/16 08:17:09;;;;;;;24.60;3.25;;;;;;;;;;5044064;28;20174;-60
2022/06/16 08:19:35;;;;;;;33.95;4.43;;;;;;;;;;5043298;28;20221;-59
2022/06/16 08:22:02;;;;;;;41.08;4.47;;;;;;;;;;5043634;28;20540;-59
2022/06/16 08:24:29;;;;;;;73.32;7.05;;;;;;;;;;5047227;28;20040;-60
2022/06/16 08:26:56;;;;;;;32.65;4.10;;;;;;;;;;5048437;28;20045;-59
2022/06/16 08:29:24;;;;;;;62.95;6.18;;;;;;;;;;5043179;28;20037;-60
2022/06/16 08:31:51;;;;;;;29.27;3.60;;;;;;;;;;5043530;28;20041;-59
2022/06/16 08:34:18;;;;;;;33.08;4.28;;;;;;;;;;5034017;28;20041;-59
2022/06/16 08:36:44;;;;;;;46.53;4.47;;;;;;;;;;5032355;28;20088;-59
2022/06/16 08:39:11;;;;;;;27.90;3.85;;;;;;;;;;5042909;28;20064;-59
2022/06/16 08:41:44;;;;;;;54.05;5.45;;;;;;;;;;5041531;28;20052;-59
2022/06/16 08:44:15;;;;;;;24.63;3.00;;;;;;;;;;5038607;28;20049;-59
2022/06/16 08:46:45;;;;;;;38.72;4.18;;;;;;;;;;5043217;28;20143;-59
2022/06/16 08:49:27;;;;;;;33.35;3.63;;;;;;;;;;5042752;28;20105;-59
2022/06/16 08:52:05;;;;;;;51.70;4.70;;;;;;;;;;5043120;28;20124;-59
2022/06/16 08:54:34;;;;;;;39.42;4.30;;;;;;;;;;5032520;28;20383;-60
2022/06/16 08:57:14;;;;;;;11.68;2.28;;;;;;;;;;5039213;28;20057;-60
2022/06/16 08:59:44;;;;;;;47.38;4.90;;;;;;;;;;5034830;28;20457;-59
2022/06/16 09:02:16;;;;;;;32.05;3.47;;;;;;;;;;5038483;28;20083;-60
2022/06/16 09:05:05;;;;;;;51.05;4.70;;;;;;;;;;5045335;28;20095;-59
2022/06/16 09:07:49;;;;;;;27.60;3.38;;;;;;;;;;5023013;28;20547;-59
2022/06/16 09:10:23;;;;;;;26.50;3.45;;;;;;;;;;5024319;28;20107;-60
2022/06/16 09:13:08;;;;;;;40.67;4.20;;;;;;;;;;5023644;28;20053;-60
2022/06/16 09:15:34;;;;;;;19.95;2.83;;;;;;;;;;5025826;28;20457;-59
2022/06/16 09:18:04;;;;;;;37.45;3.85;;;;;;;;;;5027463;28;20064;-60
2022/06/16 09:20:42;;;;;;;33.38;3.55;;;;;;;;;;5024226;28;20046;-60
2022/06/16 09:23:09;;;;;;;31.98;3.97;;;;;;;;;;5023969;28;20045;-60
2022/06/16 09:25:54;;;;;;;18.20;2.38;;;;;;;;;;5016982;28;20046;-61
2022/06/16 09:28:31;;;;;;;19.13;2.75;;;;;;;;;;5013815;28;20099;-61
2022/06/16 09:31:00;;;;;;;28.75;3.03;;;;;;;;;;5024492;28;20129;-61
2022/06/16 09:33:30;;;;;;;36.13;3.70;;;;;;;;;;5026157;28;20133;-61
2022/06/16 09:36:11;;;;;;;64.13;5.13;;;;;;;;;;5027206;28;20040;-60
2022/06/16 09:38:41;;;;;;;21.27;3.45;;;;;;;;;;5022634;28;20061;-61
2022/06/16 09:42:32;;;;;;;43.05;5.60;;;;;;;;;;5022267;28;20052;-60
2022/06/16 09:44:02;;;;;;;47.22;8.02;;;;;;;;;;5026904;28;20056;-58
2022/06/16 09:46:32;;;;;;;29.95;3.97;;;;;;;;;;5039720;28;20045;-60
2022/06/16 09:49:04;;;;;;;52.35;6.03;;;;;;;;;;5040424;28;20060;-60
2022/06/16 09:51:37;;;;;;;52.50;5.88;;;;;;;;;;5044222;28;20048;-60
2022/06/16 09:54:09;;;;;;;218.93;15.23;;;;;;;;;;5033331;28;20041;-60
2022/06/16 09:56:36;;;;;;;;;;;;;;;;;;5033111;28;20030;-61
2022/06/16 09:59:07;;;;;;;24.13;3.80;;;;;;;;;;5035318;28;20011;-60
2022/06/16 10:01:48;;;;;;;51.47;5.00;;;;;;;;;;5040825;28;20039;-60
2022/06/16 10:04:15;;;;;;;248.07;16.92;;;;;;;;;;5040761;28;20357;-60
2022/06/16 10:06:53;;;;;;;38.47;3.85;;;;;;;;;;5042611;28;20053;-60
2022/06/16 10:09:19;;;;;;;45.25;4.25;;;;;;;;;;5043087;28;20068;-60
2022/06/16 10:11:58;;;;;;;30.30;3.30;;;;;;;;;;5042806;28;20045;-60
2022/06/16 10:14:43;;;;;;;21.38;2.67;;;;;;;;;;5033315;28;20053;-61
2022/06/16 10:17:11;;;;;;;43.92;4.25;;;;;;;;;;5036810;28;20732;-60
2022/06/16 10:19:39;;;;;;;54.92;5.03;;;;;;;;;;5044642;28;20041;-60
2022/06/16 10:22:07;;;;;;;40.42;4.47;;;;;;;;;;5045068;28;21755;-60
2022/06/16 10:24:39;;;;;;;37.97;3.78;;;;;;;;;;5047996;28;20048;-60
2022/06/16 10:27:06;;;;;;;24.08;2.90;;;;;;;;;;5053294;28;20037;-60
2022/06/16 10:29:34;;;;;;;24.00;2.80;;;;;;;;;;5045701;28;20033;-60
2022/06/16 10:32:03;;;;;;;60.88;4.50;;;;;;;;;;5045724;28;20041;-59
2022/06/16 10:34:29;;;;;;;30.92;3.50;;;;;;;;;;5044540;28;20114;-61
2022/06/16 10:37:20;;;;;;;29.20;3.53;;;;;;;;;;5044604;28;20057;-61
2022/06/16 10:40:16;;;;;;;44.15;4.38;;;;;;;;;;5041479;28;20482;-61
2022/06/16 10:42:44;;;;;;;121.70;8.02;;;;;;;;;;5038843;28;20060;-60
2022/06/16 10:45:15;;;;;;;45.78;4.45;;;;;;;;;;5052626;28;20566;-61
2022/06/16 10:47:50;;;;;;;39.50;3.83;;;;;;;;;;5044624;28;20079;-61
2022/06/16 10:50:22;;;;;;;118.18;9.38;;;;;;;;;;5045760;28;20037;-60
2022/06/16 10:52:51;;;;;;;28.27;2.97;;;;;;;;;;5047456;28;20037;-61
2022/06/16 10:55:20;;;;;;;26.80;3.17;;;;;;;;;;5035372;28;20585;-61
2022/06/16 10:57:48;;;;;;;17.85;2.60;;;;;;;;;;5032926;28;20049;-61
2022/06/16 11:00:21;;;;;;;96.88;7.82;;;;;;;;;;5054656;28;20041;-60
2022/06/16 11:02:54;;;;;;;47.17;6.78;;;;;;;;;;5047732;28;20578;-60
2022/06/16 11:05:20;;;;;;;18.05;2.20;;;;;;;;;;5045288;28;20124;-60
2022/06/16 11:07:47;;;;;;;31.92;3.33;;;;;;;;;;5045342;28;20036;-60
2022/06/16 11:10:16;;;;;;;279.40;20.52;;;;;;;;;;5045162;28;20087;-60
2022/06/16 11:12:46;;;;;;;51.63;4.28;;;;;;;;;;5046831;28;20471;-61
2022/06/16 11:15:15;;;;;;;29.98;2.92;;;;;;;;;;5045803;28;20041;-59
2022/06/16 11:17:46;;;;;;;46.85;4.68;;;;;;;;;;5045854;28;20520;-59
2022/06/16 11:20:36;;;;;;;35.47;2.88;;;;;;;;;;5044923;28;20102;-59
2022/06/16 11:23:18;;;;;;;28.33;3.03;;;;;;;;;;5042553;28;20079;-59
2022/06/16 11:25:45;;;;;;;35.47;3.50;;;;;;;;;;5044488;28;20098;-60
2022/06/16 11:28:14;;;;;;;35.75;3.13;;;;;;;;;;5044881;28;20063;-59
2022/06/16 11:30:43;;;;;;;38.20;3.72;;;;;;;;;;5046008;28;20038;-59
2022/06/16 11:34:06;;;;;;;49.47;4.38;;;;;;;;;;5052672;28;20041;-60
2022/06/16 11:36:10;;;;;;;46.53;3.75;;;;;;;;;;5052072;28;20048;-59
2022/06/16 11:38:59;;;;;;;32.20;3.20;;;;;;;;;;5044776;28;20037;-59
2022/06/16 11:41:26;;;;;;;34.97;3.78;;;;;;;;;;5044512;28;20481;-60
2022/06/16 11:44:01;;;;;;;63.28;4.57;;;;;;;;;;5044274;28;20044;-60
2022/06/16 11:46:28;;;;;;;16.25;2.13;;;;;;;;;;5038910;28;20124;-60
2022/06/16 11:49:09;;;;;;;150.85;10.32;;;;;;;;;;5043862;28;20022;-61
2022/06/16 11:51:42;;;;;;;52.05;4.30;;;;;;;;;;5047323;28;20056;-60
2022/06/16 11:54:09;;;;;;;48.47;4.93;;;;;;;;;;5037473;28;20037;-61
2022/06/16 11:56:39;;;;;;;11.40;2.08;;;;;;;;;;5036510;28;20041;-61
2022/06/16 11:59:19;;;;;;;10.02;2.20;;;;;;;;;;5039133;28;20047;-61
2022/06/16 12:01:53;;;;;;;25.63;2.97;;;;;;;;;;5044296;28;20041;-60
2022/06/16 12:04:22;;;;;;;46.35;4.30;;;;;;;;;;5044064;28;20119;-60
2022/06/16 12:06:59;;;;;;;44.92;4.28;;;;;;;;;;5044021;28;20038;-59
2022/06/16 12:09:35;;;;;;;34.75;3.30;;;;;;;;;;5050164;28;20049;-60
2022/06/16 12:12:18;;;;;;;41.55;4.68;;;;;;;;;;5049968;28;20041;-60
2022/06/16 12:14:50;;;;;;;30.48;4.65;;;;;;;;;;5044458;28;20067;-60
2022/06/16 12:17:17;;;;;;;35.97;4.03;;;;;;;;;;5044002;28;20048;-60
2022/06/16 12:20:00;;;;;;;19.70;2.78;;;;;;;;;;5043854;28;20036;-60
2022/06/16 12:22:54;;;;;;;40.00;4.40;;;;;;;;;;5043902;28;20029;-60
2022/06/16 12:25:21;;;;;;;32.75;3.05;;;;;;;;;;5043587;28;20461;-60
2022/06/16 12:27:51;;;;;;;53.70;5.45;;;;;;;;;;5043583;28;20104;-60
2022/06/16 12:30:23;;;;;;;29.88;3.65;;;;;;;;;;5044841;28;20037;-60
2022/06/16 12:32:56;;;;;;;35.63;3.65;;;;;;;;;;5048890;28;20420;-60
2022/06/16 12:35:25;;;;;;;16.73;2.42;;;;;;;;;;5048025;28;20059;-61
2022/06/16 12:37:58;;;;;;;40.40;4.13;;;;;;;;;;5043101;28;20041;-60
2022/06/16 12:40:28;;;;;;;24.75;3.08;;;;;;;;;;5043280;28;20044;-60
2022/06/16 12:42:57;;;;;;;22.13;2.90;;;;;;;;;;5031700;28;20583;-61
2022/06/16 12:45:28;;;;;;;17.70;2.40;;;;;;;;;;5049703;28;20053;-62
2022/06/16 12:47:57;;;;;;;53.42;4.95;;;;;;;;;;5048510;28;20041;-60
2022/06/16 12:50:30;;;;;;;49.53;4.65;;;;;;;;;;5042069;28;20041;-60
2022/06/16 12:52:56;;;;;;;61.25;4.72;;;;;;;;;;5040076;28;20116;-61
2022/06/16 12:55:26;;;;;;;8.20;2.15;;;;;;;;;;5032262;28;20037;-59
2022/06/16 12:57:56;;;;;;;18.10;2.50;;;;;;;;;;5030221;28;20041;-61
2022/06/16 13:00:23;;;;;;;36.97;4.25;;;;;;;;;;5050498;28;20044;-61
2022/06/16 13:02:56;;;;;;;23.60;3.33;;;;;;;;;;5047982;28;20120;-60
2022/06/16 13:05:23;;;;;;;36.35;3.30;;;;;;;;;;5042875;28;20056;-60
2022/06/16 13:07:52;;;;;;;108.97;16.17;;;;;;;;;;5041950;28;20033;-61
2022/06/16 13:10:19;;;;;;;52.85;13.88;;;;;;;;;;5042870;28;20052;-60
2022/06/16 13:12:56;;;;;;;108.22;7.03;;;;;;;;;;5044000;28;20192;-60
2022/06/16 13:15:30;;;;;;;44.80;4.88;;;;;;;;;;5043797;28;20114;-61
2022/06/16 13:18:05;;;;;;;62.45;7.03;;;;;;;;;;5048135;28;20492;-61
2022/06/16 13:20:32;;;;;;;66.70;8.13;;;;;;;;;;5042816;28;20128;-61
2022/06/16 13:23:08;;;;;;;166.43;11.00;;;;;;;;;;5042307;28;20040;-61
2022/06/16 13:25:44;;;;;;;35.63;3.90;;;;;;;;;;5042951;28;20033;-61
2022/06/16 13:28:17;;;;;;;72.63;5.25;;;;;;;;;;5042620;28;20040;-61
2022/06/16 13:31:03;;;;;;;37.73;3.90;;;;;;;;;;5029165;28;20485;-61
2022/06/16 13:33:40;;;;;;;41.33;3.58;;;;;;;;;;5042020;28;20067;-61
2022/06/16 13:36:15;;;;;;;56.58;4.57;;;;;;;;;;5047385;28;20514;-60
2022/06/16 13:38:43;;;;;;;25.27;8.40;;;;;;;;;;5041808;28;20061;-61
2022/06/16 13:41:48;;;;;;;107.53;7.72;;;;;;;;;;5043414;28;20052;-59
2022/06/16 13:44:17;;;;;;;156.55;11.10;;;;;;;;;;4965738;28;20516;-60
2022/06/16 13:46:49;;;;;;;33.83;3.67;;;;;;;;;;4965354;28;20043;-59
2022/06/16 13:49:25;;;;;;;14.38;2.20;;;;;;;;;;4965304;28;20043;-59
2022/06/16 13:51:52;;;;;;;41.58;3.95;;;;;;;;;;4958714;28;20047;-61
2022/06/16 13:54:28;;;;;;;31.15;3.47;;;;;;;;;;4955945;28;20586;-59
2022/06/16 13:57:15;;;;;;;29.60;2.85;;;;;;;;;;4958066;28;20055;-59
2022/06/16 13:59:43;;;;;;;23.90;3.05;;;;;;;;;;4965715;28;20147;-59
2022/06/16 14:02:12;;;;;;;31.85;3.55;;;;;;;;;;4964777;28;20058;-59
2022/06/16 14:04:44;;;;;;;42.38;4.18;;;;;;;;;;4964157;28;20058;-59
2022/06/16 14:07:14;;;;;;;50.35;4.88;;;;;;;;;;4964506;28;20051;-60
2022/06/16 14:10:02;;;;;;;38.42;3.65;;;;;;;;;;4963782;28;20068;-59
2022/06/16 14:12:45;;;;;;;37.88;3.92;;;;;;;;;;4961396;28;20050;-59
2022/06/16 14:15:38;;;;;;;40.35;4.35;;;;;;;;;;5010271;28;20049;-60
2022/06/16 14:18:22;;;;;;;90.70;7.50;;;;;;;;;;5039131;28;20419;-60
2022/06/16 14:21:00;;;;;;;88.13;7.50;;;;;;;;;;5048035;28;20684;-60
2022/06/16 14:23:31;;;;;;;51.45;5.13;;;;;;;;;;5041488;28;20500;-61
2022/06/16 14:26:00;;;;;;;51.40;4.90;;;;;;;;;;5041920;28;20044;-59
2022/06/16 14:28:32;;;;;;;26.77;3.05;;;;;;;;;;5041864;28;20048;-59
2022/06/16 14:31:11;;;;;;;42.22;4.30;;;;;;;;;;5031490;28;20451;-62
2022/06/16 14:33:44;;;;;;;410.95;34.22;;;;;;;;;;5043986;28;20056;-60
2022/06/16 14:36:10;;;;;;;46.38;4.40;;;;;;;;;;5045150;28;20059;-60
2022/06/16 14:38:46;;;;;;;23.48;3.25;;;;;;;;;;5041776;28;20129;-60
2022/06/16 14:41:18;;;;;;;259.77;16.80;;;;;;;;;;5041584;28;20067;-61
2022/06/16 14:43:49;;;;;;;52.90;7.28;;;;;;;;;;5042026;28;20041;-60
2022/06/16 14:46:22;;;;;;;70.72;12.45;;;;;;;;;;5041858;28;20455;-59
2022/06/16 14:48:49;;;;;;;;;;;;;;;;;;5040906;28;20084;-58
2022/06/16 14:51:18;;;;;;;154.60;14.70;;;;;;;;;;5036335;28;20480;-59
2022/06/16 14:53:47;;;;;;;144.38;13.52;;;;;;;;;;5032073;28;20057;-60
2022/06/16 14:56:16;;;;;;;84.05;7.50;;;;;;;;;;5033675;28;20128;-61
2022/06/16 14:58:47;;;;;;;18.83;3.05;;;;;;;;;;5028966;28;20049;-57
2022/06/16 15:01:15;;;;;;;37.63;4.10;;;;;;;;;;5042798;28;20037;-57
2022/06/16 15:03:43;;;;;;;51.75;5.00;;;;;;;;;;5044660;28;20045;-57
2022/06/16 15:06:10;;;;;;;15.63;2.50;;;;;;;;;;5051265;28;20072;-57
2022/06/16 15:08:39;;;;;;;23.55;3.00;;;;;;;;;;5045367;28;20378;-57